Terminal Aerodrome Forecast
Issued by NWS

Home | Current Version | Previous Version | Text Only | Print | Product List | Glossary On
Versions: 1 2 3 4 5 6 7 8 9 10 11 12 13 14 15 16
000
FTUS43 KFGF 301900 AAA
TAFBJI
TAF AMD
KBJI 301902Z 3019/3118 17008KT P6SM BKN100
      TEMPO 3023/3102 BKN020
     FM310200 26006KT P6SM BKN015
     FM310500 33010KT P6SM OVC015=

USA.gov is the U.S. government's official web portal to all federal, state and local government web resources and services.